New Rooks County (RCP)
Stockton, KS
Field Elevation: 1999
Lat: 39°20.80N  Long: 99°18.28W
CTAF/Unicom Freq: 122.9000
   
    
Weather Advisories
10/30/2014 14:21 Z
Altimeter 30.20" Hg
Wind 290° @ 9 KT
Gusts --
Visibility 10 SM
Temperature 11° C (52° F)
Dewpoint -1° C (30° F)
Relative Humidity 45%
Density Altitude --
Condensation Altitude 7,800 feet
  Wind and Runways
Indicated Runway = 36
History
 
 
More Info
All DigiWx sites map
NOAA Forecast
 
Airport IQ 5010
(FLV) Sherman Airfield
(K68) Garnett Municipal Airport
 
about DigiWx
 
FAA Disclaimer: The data displayed is for advisory purposes only and is not to be used for flight planning or operations. For official data, please call (not available) to hear the current automated AWOS voice message.
  METAR RCP 301421Z AUTO 29009KT 10SM 11/M01 A3020